Time;durP1;ratioP1;P1;durP2;ratioP2;P2;SDS_P1;SDS_P2;PMS_P1;PMS_P2;Temp;Humidity;BMP_temperature;BMP_pressure;BME280_temperature;BME280_humidity;BME280_pressure;Samples;Min_cycle;Max_cycle;Signal;HPM_P1;HPM_P2
2023/10/14 00:05:05;;;;;;;4.10;2.70;;;24.50;39.30;;;24.78;27.48;97957.34;4965789;28;124238;-87
2023/10/14 00:07:32;;;;;;;4.20;2.80;;;24.50;39.80;;;24.76;27.73;97949.28;4961843;28;122760;-88
2023/10/14 00:10:03;;;;;;;5.00;2.50;;;24.50;39.90;;;24.76;27.73;97956.97;4965948;28;118747;-88
2023/10/14 00:12:35;;;;;;;6.40;3.13;;;24.50;40.20;;;24.75;27.73;97959.00;4958307;28;118018;-88
2023/10/14 00:15:05;;;;;;;6.83;2.83;;;24.50;40.30;;;24.75;27.91;97963.84;4961896;28;124211;-87
2023/10/14 00:17:41;;;;;;;6.00;2.57;;;24.50;40.60;;;24.74;28.13;97963.03;4964894;28;124739;-88
2023/10/14 00:20:09;;;;;;;4.17;2.93;;;24.50;40.80;;;24.74;28.34;97962.25;4957452;28;117418;-88
2023/10/14 00:22:39;;;;;;;6.10;2.80;;;24.50;41.10;;;24.72;28.49;97965.50;4958927;28;118916;-88
2023/10/14 00:25:11;;;;;;;7.07;3.27;;;24.50;41.30;;;24.71;28.56;97968.75;4961731;28;123106;-88
2023/10/14 00:27:39;;;;;;;3.50;2.60;;;24.40;41.70;;;24.68;29.52;97947.81;4966226;28;123469;-88
2023/10/14 00:30:12;;;;;;;5.60;3.07;;;24.40;42.80;;;24.65;30.42;97959.97;4978132;28;119694;-88
2023/10/14 00:32:41;;;;;;;8.13;3.13;;;24.40;44.00;;;24.60;31.36;97941.47;4966106;28;120060;-88
2023/10/14 00:35:09;;;;;;;4.53;3.00;;;24.30;45.10;;;24.59;31.84;97948.34;4974898;28;124083;-88
2023/10/14 00:37:35;;;;;;;15.30;3.70;;;24.30;46.30;;;24.57;32.71;97947.19;5027939;27;123921;-88
2023/10/14 00:40:10;;;;;;;6.60;3.37;;;24.20;47.30;;;24.53;33.20;97950.06;5027742;27;119376;-88
2023/10/14 00:42:39;;;;;;;6.17;3.00;;;24.20;47.80;;;24.52;33.03;97942.81;5027356;27;119267;-88
2023/10/14 00:45:09;;;;;;;5.40;4.00;;;24.20;48.00;;;24.53;33.75;97926.66;5010481;28;124250;-88
2023/10/14 00:47:43;;;;;;;10.40;3.50;;;24.20;48.70;;;24.53;34.35;97926.66;5028093;27;123853;-88
2023/10/14 00:50:33;;;;;;;5.70;3.30;;;24.20;49.50;;;24.53;34.45;97926.66;5010666;28;119273;-88
2023/10/14 00:53:05;;;;;;;6.07;3.70;;;24.20;50.00;;;24.47;35.00;97926.34;5013252;27;118507;-88
2023/10/14 00:58:23;;;;;;;10.37;3.93;;;24.10;51.00;;;24.44;35.43;97918.72;5030579;27;124070;-88
2023/10/14 01:00:59;;;;;;;11.10;3.67;;;24.10;51.60;;;24.42;35.73;97935.25;5026435;27;119788;-88
2023/10/14 01:03:31;;;;;;;8.07;4.53;;;24.00;51.70;;;24.39;36.10;97936.13;5028351;28;119078;-88
2023/10/14 01:08:52;;;;;;;9.10;3.73;;;24.00;52.90;;;24.32;37.57;97936.25;5029796;27;124927;-88
2023/10/14 01:11:24;;;;;;;9.03;4.10;;;24.00;54.60;;;24.24;38.39;97919.41;5016269;27;118385;-89
2023/10/14 01:13:52;;;;;;;10.07;4.37;;;23.90;56.00;;;24.16;39.52;97943.31;5026721;27;118425;-89
2023/10/14 01:16:24;;;;;;;5.53;4.47;;;23.80;56.90;;;24.07;40.57;97931.72;5012933;28;123173;-89
2023/10/14 01:18:51;;;;;;;10.43;4.70;;;23.80;58.00;;;23.98;41.22;97928.66;5030140;27;122831;-89
2023/10/14 01:21:17;;;;;;;9.67;4.10;;;23.70;59.60;;;23.88;41.66;97924.72;5026994;27;120477;-88
2023/10/14 01:23:57;;;;;;;8.37;4.40;;;23.50;60.10;;;23.77;41.55;97924.06;5042424;27;119944;-88
2023/10/14 01:26:27;;;;;;;7.47;4.10;;;23.50;60.70;;;23.68;42.89;97935.84;5028697;27;123309;-89
2023/10/14 01:28:59;;;;;;;7.93;4.10;;;23.40;61.70;;;23.57;43.12;97921.88;5026638;27;123967;-88
2023/10/14 01:32:05;;;;;;;9.00;5.30;;;23.30;62.40;;;23.42;43.74;97942.19;5027449;28;120159;-90
2023/10/14 01:34:41;;;;;;;8.47;4.30;;;23.20;63.40;;;23.34;43.77;97936.63;5033672;27;119012;-89
2023/10/14 01:37:19;;;;;;;12.00;4.50;;;23.10;63.40;;;23.25;44.03;97939.16;5025934;27;124027;-89
2023/10/14 01:39:48;;;;;;;7.43;4.50;;;23.00;63.80;;;23.20;43.90;97948.06;5020402;27;124451;-89
2023/10/14 01:42:19;;;;;;;9.87;5.17;;;23.10;63.90;;;23.18;44.45;97932.78;5026100;27;119731;-89
2023/10/14 01:44:45;;;;;;;10.47;4.70;;;22.90;64.60;;;23.14;44.77;97941.28;5020485;27;119139;-89
2023/10/14 01:47:12;;;;;;;6.97;4.67;;;22.90;65.00;;;23.10;45.15;97943.31;5025963;27;124141;-89
2023/10/14 01:49:38;;;;;;;7.17;5.10;;;22.90;65.80;;;23.05;45.35;97938.97;5012905;28;123383;-89
2023/10/14 01:52:08;;;;;;;8.60;4.57;;;22.70;65.90;;;23.01;45.49;97957.09;5026889;27;118309;-89
2023/10/14 01:54:35;;;;;;;6.20;4.67;;;22.70;66.70;;;22.94;46.12;97941.84;5017399;27;119455;-89
2023/10/14 01:57:05;;;;;;;12.80;4.90;;;22.60;67.30;;;22.89;46.04;97935.84;5027849;27;124053;-89
2023/10/14 01:59:34;;;;;;;7.87;4.17;;;22.60;67.50;;;22.86;45.96;97945.94;5015713;28;122192;-89
2023/10/14 02:02:00;;;;;;;8.07;4.57;;;22.60;67.80;;;22.87;46.45;97952.38;5030887;27;119418;-89
2023/10/14 02:04:29;;;;;;;7.27;4.60;;;22.60;68.30;;;22.83;46.62;97943.13;5027625;27;118871;-89
2023/10/14 02:07:30;;;;;;;7.13;4.70;;;22.50;68.80;;;22.77;46.66;97934.34;5044856;27;124053;-89
2023/10/14 02:09:48;;;;;;;7.43;4.23;;;22.50;69.00;;;22.72;46.79;97924.31;5025590;27;123757;-89
2023/10/14 02:12:18;;;;;;;8.47;4.87;;;22.40;69.50;;;22.70;46.43;97918.31;5020150;27;119679;-88
2023/10/14 02:14:57;;;;;;;7.87;4.13;;;22.40;69.50;;;22.70;46.88;97931.56;5012637;28;118933;-90
2023/10/14 02:17:24;;;;;;;7.30;4.57;;;22.40;70.00;;;22.66;46.77;97936.44;5018880;27;124163;-89
2023/10/14 02:19:54;;;;;;;8.03;5.23;;;22.30;69.80;;;22.65;47.28;97918.75;5031946;27;124159;-90
2023/10/14 02:22:23;;;;;;;6.57;4.60;;;22.30;70.70;;;22.63;47.34;97920.38;5034681;27;119717;-89
2023/10/14 02:24:55;;;;;;;10.43;4.77;;;22.30;71.00;;;22.61;47.66;97917.97;5027456;27;119462;-90
2023/10/14 02:27:24;;;;;;;11.10;4.50;;;22.30;71.50;;;22.58;47.50;97918.00;5036993;27;124337;-89
2023/10/14 02:29:51;;;;;;;5.83;4.37;;;22.20;71.40;;;22.55;47.60;97911.19;5027107;27;122951;-89
2023/10/14 02:32:20;;;;;;;6.30;4.67;;;22.20;71.70;;;22.52;47.64;97903.59;5029051;27;119324;-90
2023/10/14 02:34:46;;;;;;;8.30;4.50;;;22.20;72.70;;;22.49;47.94;97902.41;5027574;28;119030;-90
2023/10/14 02:37:13;;;;;;;6.70;4.30;;;22.10;72.40;;;22.47;47.86;97907.63;5009575;28;122930;-89
2023/10/14 02:39:43;;;;;;;6.80;4.30;;;22.10;72.50;;;22.47;48.11;97889.94;4991540;28;122524;-89
2023/10/14 02:42:15;;;;;;;7.30;4.53;;;22.10;73.00;;;22.46;47.81;97894.78;5035640;27;119674;-89
2023/10/14 02:44:51;;;;;;;7.13;4.43;;;22.10;73.00;;;22.46;47.96;97885.50;5021508;27;119520;-90
2023/10/14 02:47:26;;;;;;;13.73;5.20;;;22.10;73.20;;;22.44;48.05;97871.88;5009630;28;123351;-89
2023/10/14 02:50:04;;;;;;;6.00;4.50;;;22.00;73.30;;;22.44;47.93;97874.69;5009228;28;123700;-90
2023/10/14 02:52:38;;;;;;;7.47;4.83;;;22.10;73.70;;;22.42;48.06;97871.47;5018427;27;119153;-89
2023/10/14 02:57:49;;;;;;;7.00;5.10;;;22.10;73.70;;;22.45;48.01;97864.22;5012523;27;123548;-89
2023/10/14 03:00:32;;;;;;;9.47;5.10;;;22.10;73.60;;;22.45;47.66;97867.84;5032800;27;123981;-89
2023/10/14 03:03:13;;;;;;;11.50;4.83;;;22.10;73.70;;;22.45;48.03;97881.09;5026718;27;120500;-90
2023/10/14 03:05:50;;;;;;;9.50;5.30;;;22.10;73.90;;;22.44;47.92;97877.50;5029378;27;120238;-89
2023/10/14 03:08:19;;;;;;;9.77;4.83;;;22.10;74.30;;;22.42;47.92;97871.47;5031527;27;124713;-90
2023/10/14 03:10:59;;;;;;;6.87;4.10;;;22.00;74.00;;;22.44;48.05;97874.69;5014434;28;123824;-88
2023/10/14 03:13:29;;;;;;;6.77;3.70;;;22.10;74.50;;;22.42;48.06;97876.31;5021632;27;119227;-88
2023/10/14 03:15:56;;;;;;;9.50;5.30;;;22.00;74.60;;;22.41;48.01;97867.06;5024420;27;118871;-88
2023/10/14 03:18:36;;;;;;;8.20;5.20;;;22.10;75.00;;;22.41;47.93;97864.25;5025731;27;124126;-89
2023/10/14 03:21:09;;;;;;;8.50;4.63;;;22.00;74.70;;;22.42;48.31;97865.06;5019547;28;124121;-89
2023/10/14 03:23:35;;;;;;;8.23;5.30;;;22.10;74.80;;;22.42;48.07;97860.22;5023454;27;119268;-89
2023/10/14 03:28:38;;;;;;;7.23;4.03;;;22.10;74.70;;;22.45;48.06;97864.22;5025969;27;124628;-89
2023/10/14 03:31:08;;;;;;;6.73;4.40;;;22.10;74.80;;;22.45;47.89;97850.94;5025041;27;123653;-90
2023/10/14 03:33:44;;;;;;;7.53;5.00;;;22.10;74.90;;;22.46;47.96;97865.81;5027855;27;118467;-89
2023/10/14 03:36:15;;;;;;;5.80;4.67;;;22.10;74.90;;;22.45;47.88;97879.09;5008910;27;119039;-89
2023/10/14 03:38:54;;;;;;;8.53;4.67;;;22.10;75.10;;;22.45;48.14;97876.28;5007788;28;123343;-90
2023/10/14 03:41:23;;;;;;;16.20;5.30;;;22.10;75.20;;;22.45;47.94;97867.84;5007038;28;123568;-88
2023/10/14 03:46:47;;;;;;;8.07;5.27;;;22.10;75.10;;;22.48;47.69;97872.63;5046135;27;119127;-89
2023/10/14 03:49:22;;;;;;;8.30;4.33;;;22.10;75.10;;;22.50;47.67;97856.13;5021984;27;124269;-90
2023/10/14 03:51:54;;;;;;;9.57;5.10;;;22.10;75.10;;;22.50;47.72;97867.38;5025368;27;123886;-89
2023/10/14 03:54:28;;;;;;;7.97;5.03;;;22.10;75.40;;;22.52;48.15;97860.56;5014279;28;120259;-89
2023/10/14 03:56:57;;;;;;;13.13;5.77;;;22.10;75.50;;;22.50;47.72;97850.50;5025444;27;119590;-90
2023/10/14 03:59:26;;;;;;;9.63;5.50;;;22.20;75.60;;;22.52;48.01;97840.84;5009342;28;124172;-90
2023/10/14 04:01:57;;;;;;;8.43;4.60;;;22.10;75.60;;;22.51;48.05;97823.13;5023509;27;123010;-90
2023/10/14 04:04:24;;;;;;;8.13;5.03;;;22.10;75.70;;;22.53;48.12;97843.25;5022559;28;119729;-90
2023/10/14 04:09:39;;;;;;;10.90;5.20;;;22.10;75.70;;;22.55;47.86;97840.81;5017537;28;124796;-90
2023/10/14 04:12:32;;;;;;;17.47;4.90;;;22.10;75.70;;;22.56;47.88;97848.03;4987175;28;123920;-90
2023/10/14 04:17:33;;;;;;;10.10;5.60;;;22.20;76.10;;;22.55;48.22;97859.72;4987209;28;119117;-91
2023/10/14 04:22:39;;;;;;;6.53;4.27;;;22.20;76.40;;;22.51;48.53;97868.19;4986676;28;124270;-90
2023/10/14 04:25:21;;;;;;;7.77;5.27;;;22.10;76.70;;;22.48;48.55;97861.38;4985548;28;119362;-90
2023/10/14 04:35:26;;;;;;;8.30;4.70;;;22.10;77.20;;;22.51;48.98;97935.75;4988128;28;119611;-91
2023/10/14 04:37:57;;;;;;;7.83;5.00;;;22.10;77.90;;;22.48;50.61;97945.81;4988672;28;119033;-90
2023/10/14 04:45:51;;;;;;;6.07;3.43;;;21.90;83.90;;;21.97;53.49;97947.31;4981627;28;121093;-90
2023/10/14 04:48:27;;;;;;;16.50;3.77;;;21.70;84.50;;;21.82;54.12;97955.03;4952749;28;119692;-90
2023/10/14 04:50:57;;;;;;;11.63;4.10;;;21.70;85.30;;;21.66;54.53;97948.28;4981917;28;123475;-90
2023/10/14 04:53:27;;;;;;;6.97;3.53;;;21.60;85.90;;;21.53;54.57;97956.34;5015826;27;123724;-89
2023/10/14 04:55:54;;;;;;;6.30;3.90;;;21.50;86.10;;;21.43;54.35;97941.13;4981319;28;118504;-91
2023/10/14 04:58:25;;;;;;;7.13;4.00;;;21.40;86.20;;;21.39;54.75;97937.53;4999427;28;118337;-90
2023/10/14 05:01:00;;;;;;;5.80;3.60;;;21.40;86.60;;;21.36;54.64;97943.94;4989043;28;123159;-89
2023/10/14 05:03:31;;;;;;;7.00;3.83;;;21.30;86.70;;;21.37;54.39;97940.72;4989958;28;123907;-90
2023/10/14 05:08:55;;;;;;;3.97;3.50;;;21.30;87.00;;;21.46;54.31;97943.09;5011579;27;119414;-90
2023/10/14 05:11:31;;;;;;;5.67;3.40;;;21.30;87.10;;;21.50;54.44;97946.72;5014260;27;123786;-90
2023/10/14 05:14:09;;;;;;;8.97;3.90;;;21.30;87.60;;;21.52;54.72;97955.56;5012609;27;123236;-90
2023/10/14 05:19:24;;;;;;;11.10;3.87;;;21.30;88.40;;;21.56;54.92;97967.56;5028402;27;118572;-90
2023/10/14 05:21:57;;;;;;;7.00;3.70;;;21.30;88.80;;;21.57;55.29;97974.00;5009065;28;122990;-90
2023/10/14 05:24:28;;;;;;;5.77;3.60;;;21.30;89.00;;;21.58;54.97;97970.78;5016833;28;123064;-89
2023/10/14 05:27:01;;;;;;;6.70;4.17;;;21.30;89.10;;;21.59;54.69;97966.75;5036131;27;119754;-90
2023/10/14 05:29:29;;;;;;;11.13;4.23;;;21.30;89.30;;;21.60;54.76;97982.44;5033955;27;119364;-90
2023/10/14 05:32:10;;;;;;;9.13;4.67;;;21.30;89.40;;;21.57;54.76;97974.81;5050519;27;123385;-89
2023/10/14 05:34:42;;;;;;;8.07;3.97;;;21.30;89.30;;;21.55;55.01;97987.69;5034348;27;125594;-89
2023/10/14 05:37:11;;;;;;;6.30;4.00;;;21.30;89.10;;;21.55;54.93;97994.09;5040566;27;120179;-89
2023/10/14 05:39:41;;;;;;;7.23;3.90;;;21.30;89.20;;;21.56;54.49;97995.69;4998804;28;119869;-89
2023/10/14 05:42:16;;;;;;;5.87;4.33;;;21.30;89.20;;;21.57;54.32;98002.94;5016177;27;124229;-90
2023/10/14 05:44:47;;;;;;;6.03;3.70;;;21.30;89.10;;;21.58;54.47;98000.91;5026626;27;123315;-89
2023/10/14 05:47:29;;;;;;;7.97;4.40;;;21.30;89.00;;;21.55;54.63;98010.97;5045099;27;119360;-89
2023/10/14 05:49:55;;;;;;;6.10;3.83;;;21.30;89.30;;;21.53;54.66;98013.38;5018399;28;119226;-89
2023/10/14 05:52:27;;;;;;;5.77;4.07;;;21.30;89.10;;;21.49;54.68;98021.00;5026432;27;123980;-90
2023/10/14 05:54:53;;;;;;;5.17;3.77;;;21.20;89.00;;;21.45;54.69;98017.41;5030724;27;123898;-88
2023/10/14 05:57:22;;;;;;;10.87;4.47;;;21.30;89.30;;;21.45;54.46;98027.84;5031702;27;120068;-89
2023/10/14 05:59:57;;;;;;;4.53;3.93;;;21.20;89.40;;;21.35;54.85;98024.59;5034895;27;119336;-89
2023/10/14 06:02:25;;;;;;;7.23;3.63;;;21.10;89.50;;;21.28;55.21;98037.84;5013652;28;124060;-89
2023/10/14 06:04:55;;;;;;;11.67;4.47;;;21.00;89.60;;;21.19;55.01;98039.06;5009431;27;124199;-90
2023/10/14 06:07:21;;;;;;;5.90;3.73;;;21.00;90.00;;;21.12;55.09;98044.69;5037999;27;119209;-90
2023/10/14 06:09:48;;;;;;;6.07;3.43;;;20.90;89.90;;;21.06;55.53;98046.28;5013084;27;119121;-88
2023/10/14 06:12:16;;;;;;;7.97;4.33;;;20.90;90.10;;;21.01;55.49;98038.28;5009274;28;123799;-90
2023/10/14 06:14:47;;;;;;;7.70;4.20;;;20.80;90.00;;;20.97;55.39;98043.09;5029908;27;124068;-89
2023/10/14 06:17:14;;;;;;;7.00;3.57;;;20.80;90.40;;;20.92;55.49;98030.25;5031659;27;118459;-90
2023/10/14 06:19:41;;;;;;;11.93;3.83;;;20.70;90.00;;;20.89;55.14;98047.88;5013483;27;118789;-88
2023/10/14 06:22:10;;;;;;;6.33;3.90;;;20.70;90.00;;;20.88;55.04;98048.31;5026287;27;124066;-90
2023/10/14 06:24:37;;;;;;;5.10;3.30;;;20.70;90.00;;;20.86;54.74;98059.94;5039416;27;123926;-89
2023/10/14 06:27:08;;;;;;;5.87;3.73;;;20.60;89.80;;;20.86;54.96;98068.34;5012865;27;120169;-89
2023/10/14 06:29:38;;;;;;;14.03;4.30;;;20.60;89.70;;;20.89;54.56;98063.94;5008457;28;120323;-89
2023/10/14 06:32:07;;;;;;;4.53;3.10;;;20.60;89.50;;;20.94;54.64;98074.78;5006751;28;123666;-88
2023/10/14 06:34:34;;;;;;;5.97;3.20;;;20.70;89.50;;;20.96;54.32;98087.22;5027871;27;124069;-88
2023/10/14 06:37:02;;;;;;;8.20;3.60;;;20.60;89.40;;;20.95;53.86;98077.19;5029027;27;119316;-88
2023/10/14 06:39:39;;;;;;;5.50;3.70;;;20.60;89.10;;;20.96;53.87;98094.84;5010960;28;118510;-89
2023/10/14 06:42:08;;;;;;;4.60;3.17;;;20.70;89.10;;;20.99;53.96;98094.06;5026166;27;124275;-89
2023/10/14 06:44:35;;;;;;;4.13;3.23;;;20.70;88.80;;;21.02;53.46;98093.25;5017186;28;125048;-91
2023/10/14 06:47:02;;;;;;;7.63;3.23;;;20.70;88.70;;;21.04;53.28;98092.84;5027018;27;119347;-90
2023/10/14 06:49:36;;;;;;;6.00;3.40;;;20.70;88.40;;;21.01;53.41;98100.06;5020342;27;118492;-88
2023/10/14 06:52:04;;;;;;;5.00;2.90;;;20.70;88.20;;;21.02;53.12;98109.31;5026019;27;123107;-89
2023/10/14 06:54:36;;;;;;;6.33;3.27;;;20.70;87.90;;;21.02;53.09;98107.28;5028699;27;124371;-88
2023/10/14 06:57:07;;;;;;;9.73;3.57;;;20.70;87.80;;;21.02;52.81;98107.28;5025473;27;119299;-88
2023/10/14 06:59:39;;;;;;;11.50;3.23;;;20.80;87.60;;;21.02;52.53;98098.88;5026075;27;118991;-88
2023/10/14 07:02:06;;;;;;;8.70;3.40;;;20.70;87.40;;;21.02;52.69;98093.25;5045309;27;124683;-89
2023/10/14 07:04:37;;;;;;;6.00;3.10;;;20.80;87.20;;;21.04;52.46;98104.09;5016439;27;123074;-89
2023/10/14 07:07:08;;;;;;;6.80;3.03;;;20.70;87.00;;;21.04;52.02;98109.72;5045894;27;119305;-89
2023/10/14 07:09:37;;;;;;;4.30;2.77;;;20.70;86.70;;;21.03;51.98;98111.69;5041858;27;119562;-89
2023/10/14 07:12:15;;;;;;;4.83;2.77;;;20.70;86.40;;;21.05;51.85;98106.47;5024663;27;124413;-89
2023/10/14 07:14:44;;;;;;;6.00;3.33;;;20.70;86.40;;;21.09;52.10;98101.69;5009749;27;123970;-88
2023/10/14 07:17:12;;;;;;;4.67;2.83;;;20.80;86.40;;;21.14;51.64;98104.09;5025572;27;119584;-88
2023/10/14 07:19:39;;;;;;;5.77;3.20;;;20.80;86.20;;;21.18;51.66;98121.75;5030807;27;120567;-89
2023/10/14 07:22:07;;;;;;;5.60;2.80;;;20.80;86.00;;;21.27;51.51;98114.94;5034587;27;123271;-89
2023/10/14 07:24:40;;;;;;;6.53;2.27;;;20.80;85.80;;;21.36;51.08;98120.97;5011770;28;123224;-87
2023/10/14 07:27:06;;;;;;;9.83;2.83;;;20.90;85.60;;;21.40;50.89;98118.97;5025397;27;118448;-88
2023/10/14 07:29:33;;;;;;;4.77;2.60;;;20.90;85.30;;;21.44;50.41;98122.59;5033526;27;118942;-87
2023/10/14 07:32:01;;;;;;;15.20;2.87;;;21.00;85.10;;;21.44;50.32;98125.41;5043732;27;123085;-90
2023/10/14 07:34:28;;;;;;;2.90;2.10;;;21.00;84.60;;;21.45;49.97;98123.41;5035342;27;123078;-90
2023/10/14 07:36:55;;;;;;;4.97;2.53;;;21.00;84.20;;;21.45;49.99;98117.78;5012812;27;118723;-91
2023/10/14 07:39:27;;;;;;;4.27;2.40;;;21.10;84.00;;;21.47;50.14;98121.78;5033476;27;119506;-88
2023/10/14 07:41:57;;;;;;;3.10;2.20;;;21.10;83.80;;;21.51;50.06;98116.97;5031953;27;123933;-89
2023/10/14 07:44:23;;;;;;;6.07;2.40;;;21.20;83.70;;;21.56;49.59;98119.38;5011512;28;123836;-89
2023/10/14 07:46:51;;;;;;;6.23;2.50;;;21.20;83.40;;;21.61;49.76;98120.97;5041854;27;119190;-88
2023/10/14 07:49:20;;;;;;;3.57;2.43;;;21.20;83.30;;;21.66;49.20;98116.97;5026975;27;118637;-90
2023/10/14 07:51:51;;;;;;;4.40;1.83;;;21.20;83.10;;;21.67;49.37;98118.56;5029905;27;124724;-91
2023/10/14 07:54:18;;;;;;;5.30;2.57;;;21.30;83.00;;;21.66;48.99;98119.78;5025823;27;123717;-91
2023/10/14 07:56:46;;;;;;;7.43;1.90;;;21.30;82.80;;;21.66;49.12;98123.38;5039665;27;118500;-89
2023/10/14 07:59:14;;;;;;;5.70;2.57;;;21.30;82.60;;;21.67;49.21;98118.56;5027402;27;118836;-89
2023/10/14 08:01:40;;;;;;;6.50;2.23;;;21.30;82.40;;;21.67;48.95;98118.56;5028437;27;124068;-91
2023/10/14 08:04:13;;;;;;;5.20;2.30;;;21.30;82.40;;;21.65;48.93;98115.34;5025558;27;123264;-92
2023/10/14 08:06:44;;;;;;;3.17;1.80;;;21.30;82.40;;;21.61;49.22;98118.97;5014074;27;120416;-90
2023/10/14 08:09:28;;;;;;;7.57;2.70;;;21.30;82.10;;;21.62;49.01;98133.81;4985013;28;120945;-90
2023/10/14 08:11:55;;;;;;;3.83;2.33;;;21.30;82.00;;;21.60;49.09;98128.63;4976727;28;122121;-90
2023/10/14 08:14:21;;;;;;;2.77;1.80;;;21.30;81.90;;;21.58;49.05;98133.84;4983817;28;123017;-91
2023/10/14 08:16:48;;;;;;;2.97;1.60;;;21.30;81.90;;;21.55;48.91;98137.47;5001200;28;119182;-90
2023/10/14 08:19:16;;;;;;;6.93;1.87;;;21.20;81.90;;;21.55;48.88;98151.50;4984768;28;119028;-91
2023/10/14 08:21:50;;;;;;;4.17;1.90;;;21.20;81.90;;;21.56;49.32;98155.13;4985498;28;124521;-88
2023/10/14 08:24:18;;;;;;;6.33;2.23;;;21.20;81.90;;;21.56;48.84;98153.09;4981973;28;123851;-90
2023/10/14 08:26:46;;;;;;;4.60;2.13;;;21.20;81.80;;;21.57;49.04;98156.72;4985287;28;119352;-89
2023/10/14 08:29:14;;;;;;;3.50;2.03;;;21.20;81.60;;;21.58;48.94;98149.91;4986650;28;118908;-90
2023/10/14 08:31:42;;;;;;;5.93;1.83;;;21.20;81.60;;;21.62;48.49;98157.09;4985862;28;125342;-89
2023/10/14 08:34:14;;;;;;;4.23;1.70;;;21.20;81.40;;;21.61;48.63;98155.50;4985038;28;124257;-90
2023/10/14 08:36:42;;;;;;;2.90;1.50;;;21.20;81.40;;;21.61;48.39;98154.72;4989217;28;118712;-91
2023/10/14 08:39:09;;;;;;;2.07;1.40;;;21.20;81.40;;;21.58;48.75;98156.31;4987709;28;118832;-92
2023/10/14 08:41:40;;;;;;;2.20;1.40;;;21.20;81.40;;;21.56;48.71;98153.09;4975702;28;123949;-91
2023/10/14 08:44:14;;;;;;;2.23;1.60;;;21.20;81.60;;;21.54;49.01;98158.31;5023308;27;122985;-93
2023/10/14 08:46:43;;;;;;;3.40;1.30;;;21.20;81.80;;;21.53;48.85;98158.75;4998977;28;119235;-92
2023/10/14 08:49:12;;;;;;;3.37;1.50;;;21.20;81.90;;;21.54;49.00;98147.06;5015062;28;118459;-92
2023/10/14 08:51:40;;;;;;;2.20;1.50;;;21.20;81.90;;;21.57;49.17;98134.22;4993149;28;123919;-91
2023/10/14 08:54:11;;;;;;;4.67;1.70;;;21.20;81.80;;;21.59;48.62;98152.28;4995151;28;126504;-91
2023/10/14 08:56:40;;;;;;;3.20;1.50;;;21.20;81.80;;;21.64;48.75;98147.50;5026684;27;119837;-92
2023/10/14 08:59:07;;;;;;;3.67;1.60;;;21.20;81.70;;;21.67;48.52;98147.47;5005447;28;120191;-93
2023/10/14 09:01:35;;;;;;;4.17;1.93;;;21.30;81.50;;;21.73;48.24;98164.75;4999384;28;124149;-89
2023/10/14 09:04:08;;;;;;;5.10;1.40;;;21.30;81.30;;;21.76;48.31;98172.38;5005446;28;124823;-92
2023/10/14 09:06:35;;;;;;;3.47;1.53;;;21.30;81.10;;;21.79;48.28;98178.00;5021088;27;119317;-91
2023/10/14 09:09:13;;;;;;;3.37;1.50;;;21.30;81.10;;;21.85;48.49;98172.78;5051442;27;119115;-89
2023/10/14 09:11:39;;;;;;;3.50;1.73;;;21.40;81.20;;;21.94;48.26;98206.13;4978104;28;124178;-91
2023/10/14 09:14:10;;;;;;;1.03;0.90;;;21.50;81.20;;;21.94;48.05;98223.78;5026800;27;123546;-92
2023/10/14 09:16:39;;;;;;;1.57;0.90;;;21.50;81.10;;;21.82;48.44;98243.91;5029643;27;119392;-89
2023/10/14 09:19:06;;;;;;;2.60;0.90;;;21.40;81.20;;;21.56;49.23;98251.50;5044085;27;119210;-91
2023/10/14 09:21:45;;;;;;;2.90;0.90;;;21.30;82.20;;;21.27;50.45;98247.78;5014717;28;123802;-91
2023/10/14 09:24:12;;;;;;;1.10;0.80;;;21.10;83.10;;;21.05;51.38;98238.50;5044681;27;124253;-91
2023/10/14 09:26:43;;;;;;;2.03;1.00;;;20.90;83.80;;;20.87;52.29;98244.03;5036362;27;119106;-91
2023/10/14 09:29:11;;;;;;;1.40;0.93;;;20.70;85.20;;;20.67;53.60;98256.81;5052302;27;119290;-91
2023/10/14 09:31:39;;;;;;;1.50;1.40;;;20.50;87.20;;;20.42;55.05;98265.06;5015440;27;123564;-91
2023/10/14 09:34:08;;;;;;;2.80;0.83;;;20.40;88.70;;;20.21;55.58;98272.13;5008422;27;122804;-90
2023/10/14 09:36:43;;;;;;;4.43;1.00;;;20.20;89.10;;;20.05;55.82;98269.59;5045817;27;119472;-91
2023/10/14 09:39:16;;;;;;;1.10;0.90;;;20.10;89.50;;;19.93;56.87;98269.09;5043666;27;119013;-91
2023/10/14 09:41:47;;;;;;;1.33;1.00;;;20.00;90.50;;;19.81;57.09;98279.44;5014032;28;123945;-93
2023/10/14 09:44:15;;;;;;;1.73;1.00;;;19.80;90.60;;;19.70;58.17;98281.31;5008044;27;122725;-93
2023/10/14 09:46:46;;;;;;;1.67;0.90;;;19.70;91.10;;;19.58;58.10;98267.56;5012316;27;120668;-91
2023/10/14 09:49:15;;;;;;;1.27;1.00;;;19.60;91.10;;;19.52;58.49;98269.91;5021214;27;119662;-90
2023/10/14 09:51:48;;;;;;;2.17;1.20;;;19.50;91.30;;;19.48;58.83;98273.84;5044698;27;123847;-91
2023/10/14 09:54:21;;;;;;;1.93;1.30;;;19.50;91.70;;;19.38;59.18;98273.38;5002937;28;122966;-90
2023/10/14 09:56:50;;;;;;;1.13;0.90;;;19.30;91.80;;;19.31;59.00;98276.09;5027202;27;118942;-91
2023/10/14 09:59:22;;;;;;;1.47;1.07;;;19.30;91.90;;;19.30;59.24;98268.09;5014906;28;117173;-92
2023/10/14 10:01:49;;;;;;;1.30;1.00;;;19.20;92.20;;;19.29;59.46;98270.09;5029415;27;124113;-93
2023/10/14 10:04:22;;;;;;;1.20;0.90;;;19.20;92.40;;;19.28;59.32;98268.47;5020128;27;123770;-91
2023/10/14 10:07:46;;;;;;;2.47;0.97;;;19.10;92.80;;;19.22;59.50;98269.19;5012539;27;119761;-91
2023/10/14 10:10:31;;;;;;;1.10;0.90;;;19.10;92.60;;;19.22;59.18;98275.59;5016201;27;119200;-91
2023/10/14 10:12:59;;;;;;;1.80;1.30;;;20.20;93.10;;;19.26;59.45;98272.81;5025824;27;124221;-91
2023/10/14 10:15:26;;;;;;;2.07;1.00;;;19.00;92.80;;;19.28;59.22;98271.25;5017847;27;123441;-91
2023/10/14 10:18:12;;;;;;;2.43;1.00;;;19.00;92.70;;;19.29;58.73;98274.84;5021206;28;117510;-92
2023/10/14 10:20:56;;;;;;;0.90;0.80;;;19.00;92.60;;;19.29;58.53;98261.69;5035893;27;119406;-92
2023/10/14 10:23:24;;;;;;;1.50;0.90;;;19.00;92.60;;;19.30;58.61;98273.69;5046739;27;123845;-91
2023/10/14 10:25:51;;;;;;;1.13;0.80;;;19.00;92.50;;;19.33;58.12;98272.91;5011352;28;123755;-92
2023/10/14 10:28:26;;;;;;;1.53;0.90;;;19.00;92.30;;;19.37;57.75;98273.75;5021749;27;119626;-91
2023/10/14 10:30:56;;;;;;;1.30;0.80;;;19.10;92.20;;;19.40;57.50;98267.41;5027759;27;119011;-92
2023/10/14 10:33:23;;;;;;;1.30;0.80;;;19.10;92.00;;;19.40;57.03;98273.00;5033873;27;123343;-92
2023/10/14 10:35:59;;;;;;;3.00;1.00;;;19.10;91.80;;;19.36;57.07;98272.94;5040109;27;122520;-90
2023/10/14 10:38:28;;;;;;;1.20;0.80;;;19.10;91.70;;;19.37;56.90;98274.56;5029344;27;118800;-91
2023/10/14 10:41:26;;;;;;;1.10;0.80;;;19.10;91.60;;;19.34;56.75;98264.13;5034352;27;120286;-91
2023/10/14 10:44:05;;;;;;;1.43;0.90;;;19.10;91.50;;;19.37;56.90;98274.56;5000056;28;123439;-90
2023/10/14 10:46:50;;;;;;;1.03;0.80;;;19.10;91.60;;;19.38;56.74;98269.78;5042833;27;122236;-91
2023/10/14 10:49:49;;;;;;;4.73;1.00;;;19.10;91.60;;;19.36;56.90;98277.75;5024541;27;119309;-92
2023/10/14 10:52:16;;;;;;;0.90;0.80;;;19.10;91.80;;;19.42;56.87;98277.03;5028347;27;119028;-92
2023/10/14 10:54:46;;;;;;;1.87;1.20;;;19.10;91.60;;;19.50;57.16;98272.28;5030725;27;123480;-91
2023/10/14 10:57:13;;;;;;;1.10;1.00;;;19.20;91.80;;;19.56;57.38;98261.56;5042185;27;122525;-90
2023/10/14 10:59:40;;;;;;;3.17;1.10;;;19.20;91.80;;;19.59;56.89;98257.97;5008550;28;118654;-93
2023/10/14 11:02:18;;;;;;;2.07;0.90;;;19.30;91.80;;;19.60;57.11;98259.56;5017805;27;118979;-90
2023/10/14 11:04:45;;;;;;;1.57;0.90;;;19.30;92.00;;;19.62;56.86;98268.41;5012496;28;124144;-90
2023/10/14 11:07:14;;;;;;;1.60;0.93;;;19.30;91.90;;;19.64;57.17;98266.84;5029010;27;124022;-91
2023/10/14 11:09:42;;;;;;;1.80;1.00;;;19.30;91.90;;;19.66;56.76;98269.25;5025324;27;119333;-90
2023/10/14 11:12:11;;;;;;;1.30;0.90;;;19.40;92.00;;;19.59;57.46;98275.59;5048010;27;120532;-91
2023/10/14 11:14:41;;;;;;;1.30;1.00;;;19.30;92.00;;;19.53;57.59;98281.91;5019971;27;124279;-91